createdAt,value
2017-06-19T00:00:57.500Z,5.30
2017-06-19T00:03:25.105Z,5.20
2017-06-19T00:05:52.714Z,4.80
2017-06-19T00:08:20.297Z,4.93
2017-06-19T00:10:47.902Z,4.60
2017-06-19T00:13:16.249Z,4.97
2017-06-19T00:15:44.090Z,4.87
2017-06-19T00:18:11.666Z,4.77
2017-06-19T00:20:39.950Z,4.83
2017-06-19T00:23:23.226Z,5.20
2017-06-19T00:25:50.882Z,5.00
2017-06-19T00:28:19.230Z,4.90
2017-06-19T00:30:46.836Z,4.70
2017-06-19T00:33:14.386Z,5.13
2017-06-19T00:35:42.758Z,4.33
2017-06-19T00:38:11.090Z,4.47
2017-06-19T00:40:38.669Z,5.20
2017-06-19T00:43:06.259Z,4.70
2017-06-19T00:45:33.836Z,4.43
2017-06-19T00:48:02.154Z,4.43
2017-06-19T00:50:29.721Z,4.90
2017-06-19T00:52:57.316Z,4.40
2017-06-19T00:55:24.879Z,4.07
2017-06-19T00:57:52.446Z,5.17
2017-06-19T01:00:20.799Z,4.43
2017-06-19T01:02:48.386Z,4.67
2017-06-19T01:05:15.948Z,4.13
2017-06-19T01:07:43.630Z,5.00
2017-06-19T01:10:11.965Z,4.07
2017-06-19T01:12:39.531Z,5.30
2017-06-19T01:15:07.190Z,4.80
2017-06-19T01:17:34.755Z,4.90
2017-06-19T01:20:02.318Z,5.07
2017-06-19T01:22:29.905Z,5.13
2017-06-19T01:24:57.465Z,4.77
2017-06-19T01:27:25.017Z,4.50
2017-06-19T01:29:52.587Z,4.70
2017-06-19T01:32:20.177Z,4.97
2017-06-19T01:34:47.729Z,4.80
2017-06-19T01:37:16.083Z,4.63
2017-06-19T01:39:44.097Z,4.70
2017-06-19T01:42:11.689Z,5.33
2017-06-19T01:44:39.266Z,5.23
2017-06-19T01:47:06.826Z,4.50
2017-06-19T01:49:34.393Z,4.73
2017-06-19T01:52:01.955Z,4.90
2017-06-19T01:54:29.531Z,5.23
2017-06-19T01:56:57.160Z,5.00
2017-06-19T01:59:24.686Z,5.27
2017-06-19T02:01:52.273Z,4.73
2017-06-19T02:04:19.938Z,4.83
2017-06-19T02:06:47.496Z,4.20
2017-06-19T02:09:15.101Z,5.00
2017-06-19T02:11:42.658Z,4.80
2017-06-19T02:14:10.232Z,5.10
2017-06-19T02:16:37.859Z,5.10
2017-06-19T02:19:05.527Z,5.03
2017-06-19T02:21:33.078Z,5.13
2017-06-19T02:24:00.634Z,4.67
2017-06-19T02:26:28.220Z,5.70
2017-06-19T02:28:55.779Z,5.20
2017-06-19T02:31:23.358Z,5.20
2017-06-19T02:33:50.941Z,4.23
2017-06-19T02:36:19.286Z,4.17
2017-06-19T02:38:46.876Z,5.70
2017-06-19T02:41:14.442Z,4.97
2017-06-19T02:43:42.782Z,5.33
2017-06-19T02:46:10.365Z,4.90
2017-06-19T02:48:37.925Z,5.10
2017-06-19T02:51:05.478Z,4.90
2017-06-19T02:53:33.054Z,5.20
2017-06-19T02:56:00.615Z,4.80
2017-06-19T02:58:28.173Z,5.10
2017-06-19T03:00:55.763Z,5.07
2017-06-19T03:03:24.178Z,4.60
2017-06-19T03:05:51.753Z,5.67
2017-06-19T03:08:19.338Z,5.47
2017-06-19T03:10:46.907Z,5.10
2017-06-19T03:13:14.602Z,5.00
2017-06-19T03:15:42.923Z,4.80
2017-06-19T03:18:10.525Z,5.43
2017-06-19T03:20:38.085Z,4.87
2017-06-19T03:23:05.654Z,4.60
2017-06-19T03:25:33.220Z,5.23
2017-06-19T03:28:01.549Z,4.77
2017-06-19T03:30:29.153Z,4.80
2017-06-19T03:32:56.742Z,4.80
2017-06-19T03:35:24.402Z,5.67
2017-06-19T03:37:51.991Z,5.20
2017-06-19T03:40:19.550Z,4.50
2017-06-19T03:42:47.101Z,4.97
2017-06-19T03:45:14.702Z,4.83
2017-06-19T03:47:42.266Z,4.60
2017-06-19T03:50:09.844Z,4.83
2017-06-19T03:52:37.604Z,4.77
2017-06-19T03:55:05.179Z,5.40
2017-06-19T03:57:32.727Z,5.10
2017-06-19T04:00:00.328Z,5.27
2017-06-19T04:02:27.882Z,5.33
2017-06-19T04:04:55.575Z,4.83
2017-06-19T04:07:23.220Z,5.40
2017-06-19T04:09:50.794Z,5.83
2017-06-19T04:12:18.369Z,5.57
2017-06-19T04:14:46.706Z,5.37
2017-06-19T04:17:14.293Z,5.50
2017-06-19T04:19:41.845Z,5.53
2017-06-19T04:22:09.591Z,4.93
2017-06-19T04:24:37.177Z,5.73
2017-06-19T04:27:04.740Z,4.90
2017-06-19T04:29:32.288Z,5.40
2017-06-19T04:31:59.849Z,4.83
2017-06-19T04:34:27.444Z,5.80
2017-06-19T04:36:55.011Z,6.00
2017-06-19T04:39:23.330Z,5.20
2017-06-19T04:41:50.917Z,5.20
2017-06-19T04:44:18.477Z,5.33
2017-06-19T04:46:46.046Z,5.10
2017-06-19T04:49:13.623Z,5.13
2017-06-19T04:51:41.190Z,5.27
2017-06-19T04:54:08.762Z,4.97
2017-06-19T04:56:37.090Z,4.30
2017-06-19T04:59:04.692Z,4.93
2017-06-19T05:01:32.239Z,4.30
2017-06-19T05:03:59.993Z,4.70
2017-06-19T05:06:27.585Z,4.37
2017-06-19T05:08:55.154Z,4.20
2017-06-19T05:11:23.503Z,4.80
2017-06-19T05:13:51.073Z,4.33
2017-06-19T05:16:18.648Z,4.70
2017-06-19T05:18:46.231Z,4.90
2017-06-19T05:21:14.562Z,4.97
2017-06-19T05:23:42.120Z,4.30
2017-06-19T05:26:09.713Z,4.70
2017-06-19T05:28:37.266Z,4.83
2017-06-19T05:31:04.822Z,4.30
2017-06-19T05:33:32.386Z,4.40
2017-06-19T05:35:59.961Z,4.60
2017-06-19T05:38:27.538Z,4.83
2017-06-19T05:40:55.857Z,4.80
2017-06-19T05:43:23.434Z,4.30
2017-06-19T05:45:51.026Z,4.10
2017-06-19T05:48:18.586Z,4.80
2017-06-19T05:50:46.213Z,4.30
2017-06-19T05:53:13.815Z,4.27
2017-06-19T05:55:41.383Z,4.13
2017-06-19T05:58:08.950Z,4.30
2017-06-19T06:00:36.496Z,4.30
2017-06-19T06:03:04.075Z,4.13
2017-06-19T06:05:31.638Z,4.17
2017-06-19T06:07:59.243Z,4.50
2017-06-19T06:10:26.909Z,4.60
2017-06-19T06:12:54.512Z,4.17
2017-06-19T06:15:22.124Z,4.30
2017-06-19T06:17:49.701Z,4.00
2017-06-19T06:20:17.422Z,4.27
2017-06-19T06:22:45.049Z,3.80
2017-06-19T06:25:13.365Z,4.03
2017-06-19T06:27:40.943Z,3.75
2017-06-19T06:30:08.526Z,3.80
2017-06-19T06:32:36.120Z,3.60
2017-06-19T06:35:04.439Z,3.43
2017-06-19T06:37:32.054Z,4.20
2017-06-19T06:40:04.161Z,4.60
2017-06-19T06:42:31.721Z,3.90
2017-06-19T06:44:59.286Z,3.30
2017-06-19T06:47:26.936Z,3.67
2017-06-19T06:49:54.509Z,3.30
2017-06-19T06:52:22.086Z,3.77
2017-06-19T06:54:49.650Z,4.00
2017-06-19T06:57:17.206Z,4.13
2017-06-19T06:59:44.811Z,3.53
2017-06-19T07:02:12.372Z,3.30
2017-06-19T07:04:39.932Z,3.50
2017-06-19T07:07:08.294Z,3.40
2017-06-19T07:09:35.858Z,3.37
2017-06-19T07:12:03.575Z,3.50
2017-06-19T07:14:31.137Z,3.30
2017-06-19T07:16:58.698Z,3.27
2017-06-19T07:19:26.290Z,3.70
2017-06-19T07:21:53.877Z,3.90
2017-06-19T07:24:31.353Z,4.03
2017-06-19T07:26:58.950Z,3.60
2017-06-19T07:29:26.509Z,3.73
2017-06-19T07:31:54.225Z,3.27
2017-06-19T07:34:21.794Z,4.13
2017-06-19T07:36:50.146Z,3.40
2017-06-19T07:39:17.711Z,3.43
2017-06-19T07:41:45.296Z,3.60
2017-06-19T07:44:12.879Z,3.20
2017-06-19T07:46:41.208Z,3.23
2017-06-19T07:49:09.351Z,3.00
2017-06-19T07:51:36.950Z,3.03
2017-06-19T07:54:04.531Z,3.37
2017-06-19T07:56:32.095Z,3.17
2017-06-19T07:58:59.682Z,3.53
2017-06-19T08:01:28.078Z,3.20
2017-06-19T08:03:55.647Z,3.00
2017-06-19T08:06:23.249Z,3.17
2017-06-19T08:08:50.835Z,2.90
2017-06-19T08:11:18.402Z,3.00
2017-06-19T08:13:45.950Z,2.80
2017-06-19T08:16:13.522Z,3.07
2017-06-19T08:18:41.103Z,3.03
2017-06-19T08:21:09.436Z,2.80
2017-06-19T08:23:50.830Z,2.63
2017-06-19T08:26:18.386Z,3.00
2017-06-19T08:28:45.935Z,3.20
2017-06-19T08:31:13.534Z,2.80
2017-06-19T08:33:41.207Z,3.00
2017-06-19T08:36:08.799Z,3.13
2017-06-19T08:38:36.361Z,2.40
2017-06-19T08:41:03.976Z,2.27
2017-06-19T08:43:31.596Z,2.40
2017-06-19T08:45:59.183Z,2.43
2017-06-19T08:48:26.780Z,3.03
2017-06-19T08:50:54.339Z,2.43
2017-06-19T08:53:21.918Z,2.93
2017-06-19T08:55:50.315Z,2.70
2017-06-19T08:58:19.387Z,2.57
2017-06-19T09:00:46.966Z,2.33
2017-06-19T09:03:14.542Z,1.67
2017-06-19T09:05:43.065Z,2.47
2017-06-19T09:08:10.644Z,2.83
2017-06-19T09:10:38.242Z,2.20
2017-06-19T09:13:06.570Z,2.40
2017-06-19T09:15:34.139Z,2.30
2017-06-19T09:18:01.729Z,2.50
2017-06-19T09:20:29.302Z,2.67
2017-06-19T09:22:56.874Z,2.80
2017-06-19T09:25:25.230Z,2.10
2017-06-19T09:27:52.773Z,2.00
2017-06-19T09:30:20.454Z,2.27
2017-06-19T09:32:48.027Z,2.50
2017-06-19T09:35:15.594Z,2.10
2017-06-19T09:37:43.194Z,2.50
2017-06-19T09:40:10.760Z,2.13
2017-06-19T09:42:38.389Z,1.67
2017-06-19T09:45:05.955Z,2.23
2017-06-19T09:47:33.513Z,2.00
2017-06-19T09:50:01.868Z,2.20
2017-06-19T09:52:29.444Z,1.90
2017-06-19T09:54:57.023Z,2.00
2017-06-19T09:57:24.570Z,1.90
2017-06-19T09:59:52.144Z,2.10
2017-06-19T10:02:19.756Z,2.10
2017-06-19T10:04:47.326Z,2.37
2017-06-19T10:07:15.028Z,2.70
2017-06-19T10:09:42.599Z,2.37
2017-06-19T10:12:10.149Z,2.60
2017-06-19T10:14:37.754Z,2.27
2017-06-19T10:17:05.391Z,2.20
2017-06-19T10:19:32.958Z,2.10
2017-06-19T10:22:01.299Z,2.43
2017-06-19T10:24:28.892Z,2.00
2017-06-19T10:26:56.474Z,2.40
2017-06-19T10:29:24.040Z,2.20
2017-06-19T10:31:52.400Z,2.33
2017-06-19T10:34:19.989Z,2.30
2017-06-19T10:36:47.690Z,1.90
2017-06-19T10:39:15.393Z,2.10
2017-06-19T10:41:43.028Z,2.00
2017-06-19T10:44:10.602Z,2.10
2017-06-19T10:46:38.194Z,2.27
2017-06-19T10:49:06.551Z,1.90
2017-06-19T10:51:34.260Z,1.80
2017-06-19T10:54:01.923Z,1.83
2017-06-19T10:56:29.503Z,1.80
2017-06-19T10:58:57.074Z,1.80
2017-06-19T11:01:24.785Z,1.80
2017-06-19T11:03:52.604Z,1.93
2017-06-19T11:06:20.250Z,1.77
2017-06-19T11:08:47.826Z,1.90
2017-06-19T11:11:15.413Z,2.10
2017-06-19T11:13:42.966Z,1.70
2017-06-19T11:16:10.558Z,2.20
2017-06-19T11:18:38.129Z,2.10
2017-06-19T11:21:05.799Z,1.90
2017-06-19T11:23:34.146Z,2.33
2017-06-19T11:26:01.710Z,2.20
2017-06-19T11:28:29.297Z,2.10
2017-06-19T11:30:56.860Z,2.10
2017-06-19T11:33:24.437Z,1.70
2017-06-19T11:35:52.765Z,2.07
2017-06-19T11:38:20.330Z,2.03
2017-06-19T11:40:48.003Z,2.00
2017-06-19T11:43:16.377Z,2.07
2017-06-19T11:45:43.964Z,1.63
2017-06-19T11:48:11.562Z,1.60
2017-06-19T11:50:39.899Z,2.03
2017-06-19T11:53:07.574Z,2.15
2017-06-19T11:55:35.160Z,2.20
2017-06-19T11:58:02.759Z,1.93
2017-06-19T12:00:30.494Z,2.10
2017-06-19T12:02:58.842Z,1.67
2017-06-19T12:05:26.436Z,1.60
2017-06-19T12:07:54.016Z,1.80
2017-06-19T12:10:22.487Z,2.00
2017-06-19T12:12:50.850Z,2.03
2017-06-19T12:15:18.412Z,1.87
2017-06-19T12:17:45.961Z,1.60
2017-06-19T12:20:13.554Z,1.60
2017-06-19T12:22:41.125Z,1.50
2017-06-19T12:25:09.442Z,1.63
2017-06-19T12:27:37.017Z,2.03
2017-06-19T12:30:04.579Z,2.10
2017-06-19T12:32:32.153Z,2.10
2017-06-19T12:34:59.726Z,1.93
2017-06-19T12:37:27.295Z,1.60
2017-06-19T12:39:54.886Z,2.00
2017-06-19T12:42:23.199Z,2.17
2017-06-19T12:44:50.964Z,2.35
2017-06-19T12:47:18.569Z,1.60
2017-06-19T12:49:46.141Z,1.53
2017-06-19T12:52:14.206Z,1.77
2017-06-19T12:54:41.817Z,1.70
2017-06-19T12:57:09.379Z,1.80
2017-06-19T12:59:36.991Z,1.93
2017-06-19T13:02:04.543Z,1.77
2017-06-19T13:04:32.117Z,1.57
2017-06-19T13:06:59.719Z,1.47
2017-06-19T13:09:27.351Z,1.73
2017-06-19T13:11:54.902Z,2.10
2017-06-19T13:14:22.492Z,1.60
2017-06-19T13:16:50.087Z,1.93
2017-06-19T13:19:17.711Z,1.50
2017-06-19T13:21:45.298Z,2.30
2017-06-19T13:26:49.920Z,1.47
2017-06-19T13:29:17.489Z,2.10
2017-06-19T13:31:45.052Z,2.00
2017-06-19T13:34:13.563Z,2.05
2017-06-19T13:36:42.074Z,2.03
2017-06-19T13:39:10.412Z,1.90
2017-06-19T13:41:38.006Z,2.30
2017-06-19T13:44:05.813Z,2.00
2017-06-19T13:46:33.373Z,2.20
2017-06-19T13:49:01.103Z,2.20
2017-06-19T13:51:28.684Z,2.30
2017-06-19T13:53:57.012Z,2.23
2017-06-19T13:56:24.609Z,2.40
2017-06-19T13:58:52.183Z,2.40
2017-06-19T14:01:20.565Z,2.10
2017-06-19T14:03:49.099Z,2.50
2017-06-19T14:06:16.670Z,1.80
2017-06-19T14:08:44.266Z,2.07
2017-06-19T14:11:12.617Z,1.80
2017-06-19T14:13:40.174Z,2.23
2017-06-19T14:16:07.767Z,2.50
2017-06-19T14:18:35.372Z,2.13
2017-06-19T14:21:02.990Z,2.30
2017-06-19T14:23:30.620Z,2.13
2017-06-19T14:25:59.288Z,1.90
2017-06-19T14:28:27.759Z,2.20
2017-06-19T14:30:56.085Z,2.20
2017-06-19T14:33:23.666Z,2.30
2017-06-19T14:35:51.279Z,2.20
2017-06-19T14:38:19.620Z,2.00
2017-06-19T14:40:47.187Z,2.10
2017-06-19T14:43:14.809Z,2.43
2017-06-19T14:45:42.368Z,2.27
2017-06-19T14:48:09.956Z,2.73
2017-06-19T14:50:37.533Z,2.10
2017-06-19T14:53:05.105Z,2.30
2017-06-19T14:55:32.673Z,2.50
2017-06-19T14:58:00.258Z,2.00
2017-06-19T15:00:27.841Z,2.00
2017-06-19T15:02:56.186Z,2.17
2017-06-19T15:05:23.755Z,2.37
2017-06-19T15:07:51.310Z,2.80
2017-06-19T15:10:18.931Z,2.03
2017-06-19T15:12:46.524Z,2.60
2017-06-19T15:15:14.130Z,2.33
2017-06-19T15:17:42.485Z,2.30
2017-06-19T15:20:10.055Z,2.03
2017-06-19T15:22:37.790Z,2.30
2017-06-19T15:25:05.391Z,1.90
2017-06-19T15:27:32.967Z,2.10
2017-06-19T15:30:00.518Z,2.60
2017-06-19T15:32:28.171Z,2.10
2017-06-19T15:34:55.750Z,3.00
2017-06-19T15:37:23.317Z,2.13
2017-06-19T15:39:50.907Z,2.30
2017-06-19T15:42:18.466Z,2.10
2017-06-19T15:44:46.049Z,2.20
2017-06-19T15:47:25.877Z,2.30
2017-06-19T15:49:53.484Z,2.50
2017-06-19T15:52:21.070Z,2.37
2017-06-19T15:54:48.644Z,2.10
2017-06-19T15:57:16.194Z,2.23
2017-06-19T15:59:43.862Z,2.47
2017-06-19T16:02:11.458Z,2.30
2017-06-19T16:04:39.580Z,2.43
2017-06-19T16:07:07.134Z,2.73
2017-06-19T16:09:34.710Z,2.30
2017-06-19T16:12:02.362Z,2.60
2017-06-19T16:14:30.037Z,2.80
2017-06-19T16:16:57.598Z,2.57
2017-06-19T16:19:25.191Z,2.40
2017-06-19T16:21:52.773Z,2.43
2017-06-19T16:24:20.443Z,2.30
2017-06-19T16:26:48.038Z,2.30
2017-06-19T16:29:15.600Z,2.20
2017-06-19T16:31:43.262Z,2.20
2017-06-19T16:34:10.859Z,2.60
2017-06-19T16:36:38.448Z,1.97
2017-06-19T16:39:06.824Z,2.47
2017-06-19T16:41:34.395Z,2.30
2017-06-19T16:44:02.721Z,2.40
2017-06-19T16:46:30.322Z,2.47
2017-06-19T16:48:59.434Z,2.63
2017-06-19T16:51:27.018Z,2.50
2017-06-19T16:53:54.653Z,2.40
2017-06-19T16:56:22.218Z,2.40
2017-06-19T16:58:49.789Z,2.00
2017-06-19T17:01:17.339Z,2.23
2017-06-19T17:03:44.935Z,2.17
2017-06-19T17:06:12.482Z,2.33
2017-06-19T17:08:40.871Z,2.13
2017-06-19T17:11:09.226Z,2.13
2017-06-19T17:13:36.778Z,2.00
2017-06-19T17:16:04.339Z,2.63
2017-06-19T17:18:31.998Z,2.80
2017-06-19T17:20:59.578Z,2.53
2017-06-19T17:23:27.280Z,2.30
2017-06-19T17:25:54.883Z,2.17
2017-06-19T17:28:22.469Z,2.10
2017-06-19T17:30:50.039Z,2.40
2017-06-19T17:33:18.365Z,2.47
2017-06-19T17:35:45.983Z,2.20
2017-06-19T17:38:13.550Z,2.10
2017-06-19T17:40:41.160Z,2.83
2017-06-19T17:43:08.772Z,2.20
2017-06-19T17:45:36.389Z,2.50
2017-06-19T17:48:03.965Z,2.60
2017-06-19T17:50:31.633Z,2.40
2017-06-19T17:52:59.209Z,2.30
2017-06-19T17:55:26.886Z,2.10
2017-06-19T17:57:54.459Z,2.03
2017-06-19T18:00:22.805Z,2.40
2017-06-19T18:02:50.382Z,2.20
2017-06-19T18:05:17.981Z,2.43
2017-06-19T18:07:46.432Z,2.57
2017-06-19T18:10:14.054Z,2.47
2017-06-19T18:12:41.834Z,2.80
2017-06-19T18:15:09.402Z,2.47
2017-06-19T18:17:36.974Z,2.50
2017-06-19T18:20:04.586Z,2.67
2017-06-19T18:22:32.201Z,2.27
2017-06-19T18:24:59.767Z,2.40
2017-06-19T18:27:27.543Z,3.20
2017-06-19T18:29:55.133Z,2.60
2017-06-19T18:32:23.546Z,2.37
2017-06-19T18:34:51.136Z,2.87
2017-06-19T18:37:18.726Z,2.80
2017-06-19T18:39:46.317Z,2.97
2017-06-19T18:42:13.888Z,2.70
2017-06-19T18:44:41.479Z,2.53
2017-06-19T18:47:09.083Z,2.20
2017-06-19T18:49:36.637Z,2.17
2017-06-19T18:52:04.215Z,2.50
2017-06-19T18:54:32.554Z,2.87
2017-06-19T18:57:00.126Z,2.53
2017-06-19T18:59:27.886Z,2.73
2017-06-19T19:01:55.477Z,2.33
2017-06-19T19:04:23.235Z,2.73
2017-06-19T19:06:50.807Z,2.73
2017-06-19T19:09:19.179Z,2.57
2017-06-19T19:11:46.779Z,2.63
2017-06-19T19:14:14.341Z,3.00
2017-06-19T19:16:41.927Z,3.57
2017-06-19T19:19:09.513Z,3.37
2017-06-19T19:21:37.122Z,3.03
2017-06-19T19:24:05.499Z,4.20
2017-06-19T19:26:33.866Z,4.20
2017-06-19T19:29:01.426Z,7.00
2017-06-19T19:31:29.094Z,7.77
2017-06-19T19:33:56.658Z,5.13
2017-06-19T19:36:25.019Z,4.00
2017-06-19T19:38:52.602Z,4.20
2017-06-19T19:41:20.187Z,4.37
2017-06-19T19:43:48.490Z,4.80
2017-06-19T19:46:16.055Z,5.50
2017-06-19T19:48:43.717Z,5.77
2017-06-19T19:51:11.398Z,5.80
2017-06-19T19:53:38.950Z,6.93
2017-06-19T19:56:06.536Z,6.70
2017-06-19T19:58:34.096Z,6.97
2017-06-19T20:01:01.684Z,6.50
2017-06-19T20:03:29.239Z,6.03
2017-06-19T20:05:56.806Z,5.77
2017-06-19T20:08:24.409Z,5.30
2017-06-19T20:10:51.990Z,5.10
2017-06-19T20:13:19.616Z,5.10
2017-06-19T20:15:47.978Z,5.40
2017-06-19T20:18:15.591Z,5.67
2017-06-19T20:20:43.221Z,5.67
2017-06-19T20:23:11.548Z,4.93
2017-06-19T20:25:39.133Z,4.80
2017-06-19T20:28:06.710Z,4.60
2017-06-19T20:30:34.298Z,4.50
2017-06-19T20:33:02.763Z,4.23
2017-06-19T20:35:30.321Z,4.47
2017-06-19T20:37:57.919Z,4.40
2017-06-19T20:40:25.472Z,4.97
2017-06-19T20:42:53.063Z,5.40
2017-06-19T20:45:20.691Z,4.97
2017-06-19T20:47:49.114Z,5.57
2017-06-19T20:50:16.709Z,5.93
2017-06-19T20:52:44.865Z,5.50
2017-06-19T20:55:12.517Z,5.77
2017-06-19T20:57:40.998Z,5.03
2017-06-19T21:00:08.624Z,5.57
2017-06-19T21:02:36.981Z,5.07
2017-06-19T21:05:04.647Z,5.10
2017-06-19T21:07:32.283Z,5.50
2017-06-19T21:09:59.875Z,4.70
2017-06-19T21:12:27.426Z,5.13
2017-06-19T21:14:54.978Z,5.63
2017-06-19T21:17:22.532Z,5.33
2017-06-19T21:19:50.286Z,5.73
2017-06-19T21:22:17.947Z,6.07
2017-06-19T21:24:45.545Z,5.90
2017-06-19T21:27:13.372Z,5.63
2017-06-19T21:29:42.035Z,6.80
2017-06-19T21:32:09.711Z,5.60
2017-06-19T21:34:37.307Z,6.50
2017-06-19T21:37:04.894Z,6.10
2017-06-19T21:39:32.519Z,6.13
2017-06-19T21:42:00.665Z,6.73
2017-06-19T21:44:28.227Z,6.67
2017-06-19T21:46:55.897Z,7.10
2017-06-19T21:49:24.370Z,6.53
2017-06-19T21:54:25.988Z,6.40
2017-06-19T21:56:53.581Z,5.07
2017-06-19T21:59:21.147Z,5.70
2017-06-19T22:01:48.741Z,5.43
2017-06-19T22:04:16.323Z,6.30
2017-06-19T22:06:44.682Z,6.40
2017-06-19T22:09:12.410Z,6.57
2017-06-19T22:11:40.022Z,6.27
2017-06-19T22:14:07.596Z,5.67
2017-06-19T22:16:35.932Z,5.60
2017-06-19T22:19:03.527Z,5.50
2017-06-19T22:21:36.799Z,6.13
2017-06-19T22:24:04.373Z,6.23
2017-06-19T22:26:31.940Z,5.80
2017-06-19T22:28:59.512Z,5.97
2017-06-19T22:31:27.166Z,5.90
2017-06-19T22:33:54.767Z,6.30
2017-06-19T22:36:22.414Z,5.67
2017-06-19T22:38:50.752Z,5.50
2017-06-19T22:41:19.360Z,6.67
2017-06-19T22:43:46.971Z,5.83
2017-06-19T22:46:14.546Z,5.63
2017-06-19T22:48:42.123Z,6.20
2017-06-19T22:51:09.723Z,5.67
2017-06-19T22:53:38.064Z,6.10
2017-06-19T22:56:05.635Z,7.00
2017-06-19T22:58:33.250Z,5.40
2017-06-19T23:01:00.823Z,6.50
2017-06-19T23:03:28.416Z,6.27
2017-06-19T23:05:55.980Z,6.10
2017-06-19T23:08:23.541Z,5.90
2017-06-19T23:10:51.150Z,6.50
2017-06-19T23:13:19.490Z,5.70
2017-06-19T23:15:47.082Z,6.13
2017-06-19T23:18:14.781Z,5.43
2017-06-19T23:20:42.369Z,6.20
2017-06-19T23:23:09.929Z,6.10
2017-06-19T23:25:37.518Z,5.33
2017-06-19T23:28:05.138Z,5.73
2017-06-19T23:30:32.693Z,6.93
2017-06-19T23:33:00.250Z,5.53
2017-06-19T23:35:27.823Z,5.13
2017-06-19T23:37:55.567Z,5.43
2017-06-19T23:40:23.953Z,6.20
2017-06-19T23:42:51.517Z,5.23
2017-06-19T23:45:19.103Z,5.90
2017-06-19T23:47:46.703Z,5.90
2017-06-19T23:50:14.259Z,5.77
2017-06-19T23:52:41.842Z,6.37
2017-06-19T23:55:10.199Z,6.00
2017-06-19T23:57:37.754Z,5.87
